createdAt,value
2023-04-01T00:00:49.433Z,9.41
2023-04-01T00:03:16.283Z,9.33
2023-04-01T00:05:42.791Z,9.17
2023-04-01T00:08:09.310Z,9.02
2023-04-01T00:10:38.224Z,9.04
2023-04-01T00:13:04.730Z,9.04
2023-04-01T00:15:31.414Z,9.18
2023-04-01T00:17:58.168Z,8.98
2023-04-01T00:20:24.678Z,8.93
2023-04-01T00:22:51.479Z,9.02
2023-04-01T00:25:18.041Z,8.89
2023-04-01T00:27:44.507Z,8.97
2023-04-01T00:30:11.536Z,8.89
2023-04-01T00:32:38.073Z,8.79
2023-04-01T00:35:05.266Z,8.64
2023-04-01T00:37:31.725Z,8.63
2023-04-01T00:39:58.611Z,8.77
2023-04-01T00:42:25.146Z,8.81
2023-04-01T00:44:52.524Z,8.81
2023-04-01T00:47:19.424Z,8.81
2023-04-01T00:49:51.029Z,8.81
2023-04-01T00:52:23.716Z,8.62
2023-04-01T00:54:52.827Z,8.68
2023-04-01T00:57:33.677Z,8.51
2023-04-01T01:00:00.687Z,8.89
2023-04-01T01:02:27.395Z,8.68
2023-04-01T01:04:53.929Z,8.69
2023-04-01T01:07:26.252Z,8.75
2023-04-01T01:09:58.942Z,8.48
2023-04-01T01:12:44.387Z,8.52
2023-04-01T01:15:24.513Z,8.70
2023-04-01T01:18:10.052Z,8.67
2023-04-01T01:20:45.789Z,8.54
2023-04-01T01:23:24.264Z,8.43
2023-04-01T01:25:59.780Z,8.47
2023-04-01T01:28:38.476Z,8.23
2023-04-01T01:31:14.091Z,8.08
2023-04-01T01:33:46.363Z,8.26
2023-04-01T01:36:14.750Z,8.39
2023-04-01T01:38:41.409Z,8.25
2023-04-01T01:41:10.259Z,8.06
2023-04-01T01:43:40.254Z,8.26
2023-04-01T01:46:10.549Z,8.41
2023-04-01T01:48:37.676Z,8.17
2023-04-01T01:51:06.504Z,8.13
2023-04-01T01:53:33.238Z,8.11
2023-04-01T01:56:00.109Z,8.23
2023-04-01T01:58:32.740Z,8.21
2023-04-01T02:01:05.677Z,8.20
2023-04-01T02:03:34.177Z,8.17
2023-04-01T02:06:01.696Z,8.15
2023-04-01T02:08:34.647Z,7.93
2023-04-01T02:11:02.872Z,7.97
2023-04-01T02:13:38.944Z,8.18
2023-04-01T02:16:11.768Z,8.16
2023-04-01T02:18:39.366Z,8.12
2023-04-01T02:21:06.976Z,7.97
2023-04-01T02:23:36.230Z,7.88
2023-04-01T02:26:03.853Z,7.72
2023-04-01T02:28:31.676Z,7.78
2023-04-01T02:31:01.186Z,7.90
2023-04-01T02:33:28.385Z,7.92
2023-04-01T02:35:54.971Z,7.77
2023-04-01T02:38:21.751Z,7.70
2023-04-01T02:40:50.617Z,7.64
2023-04-01T02:43:18.391Z,7.72
2023-04-01T02:45:44.870Z,7.74
2023-04-01T02:48:11.469Z,7.36
2023-04-01T02:50:37.957Z,7.48
2023-04-01T02:53:04.852Z,7.57
2023-04-01T02:55:32.489Z,7.74
2023-04-01T02:57:59.561Z,7.81
2023-04-01T03:00:27.240Z,7.98
2023-04-01T03:02:54.336Z,8.00
2023-04-01T03:05:21.338Z,7.93
2023-04-01T03:07:47.853Z,7.78
2023-04-01T03:10:14.493Z,7.52
2023-04-01T03:12:41.413Z,7.48
2023-04-01T03:15:10.431Z,7.55
2023-04-01T03:17:39.346Z,7.51
2023-04-01T03:20:06.362Z,7.48
2023-04-01T03:22:32.900Z,7.59
2023-04-01T03:24:59.406Z,7.56
2023-04-01T03:27:25.913Z,7.36
2023-04-01T03:29:52.823Z,7.48
2023-04-01T03:32:19.728Z,7.64
2023-04-01T03:34:46.263Z,7.51
2023-04-01T03:37:12.934Z,7.76
2023-04-01T03:39:39.449Z,7.61
2023-04-01T03:42:07.545Z,7.61
2023-04-01T03:44:34.686Z,7.55
2023-04-01T03:47:01.518Z,7.44
2023-04-01T03:49:28.749Z,7.54
2023-04-01T03:51:55.565Z,7.67
2023-04-01T03:54:23.003Z,7.72
2023-04-01T03:56:49.485Z,7.59
2023-04-01T03:59:16.329Z,7.52
2023-04-01T04:01:42.846Z,7.38
2023-04-01T04:04:11.671Z,7.55
2023-04-01T04:06:38.220Z,7.54
2023-04-01T04:09:04.965Z,7.52
2023-04-01T04:11:31.757Z,7.56
2023-04-01T04:13:58.390Z,7.49
2023-04-01T04:16:25.035Z,7.51
2023-04-01T04:18:57.359Z,7.58
2023-04-01T04:21:24.035Z,7.68
2023-04-01T04:23:51.561Z,7.73
2023-04-01T04:26:19.453Z,7.78
2023-04-01T04:28:59.894Z,7.61
2023-04-01T04:31:26.851Z,7.44
2023-04-01T04:33:55.791Z,7.56
2023-04-01T04:36:23.021Z,7.73
2023-04-01T04:38:51.026Z,7.42
2023-04-01T04:41:19.174Z,7.45
2023-04-01T04:43:53.473Z,7.32
2023-04-01T04:46:20.614Z,7.47
2023-04-01T04:48:49.880Z,7.56
2023-04-01T04:51:17.303Z,7.48
2023-04-01T04:53:44.154Z,7.70
2023-04-01T04:56:11.294Z,7.55
2023-04-01T04:58:44.266Z,7.48
2023-04-01T05:01:16.887Z,7.75
2023-04-01T05:03:43.976Z,7.77
2023-04-01T05:06:11.098Z,7.59
2023-04-01T05:08:39.712Z,7.55
2023-04-01T05:11:08.593Z,7.54
2023-04-01T05:13:35.399Z,7.68
2023-04-01T05:16:01.889Z,7.59
2023-04-01T05:18:28.403Z,7.82
2023-04-01T05:20:55.699Z,7.97
2023-04-01T05:23:23.067Z,7.85
2023-04-01T05:25:50.807Z,7.82
2023-04-01T05:28:17.732Z,8.07
2023-04-01T05:30:46.428Z,8.11
2023-04-01T05:33:24.540Z,8.14
2023-04-01T05:35:51.311Z,8.02
2023-04-01T05:38:17.869Z,8.31
2023-04-01T05:40:44.412Z,8.18
2023-04-01T05:43:10.991Z,7.88
2023-04-01T05:45:38.428Z,8.12
2023-04-01T05:48:27.609Z,8.43
2023-04-01T05:50:54.256Z,8.71
2023-04-01T05:53:20.896Z,8.81
2023-04-01T05:55:47.472Z,8.71
2023-04-01T05:58:14.309Z,8.66
2023-04-01T06:00:43.893Z,8.58
2023-04-01T06:03:10.576Z,8.51
2023-04-01T06:05:43.964Z,8.65
2023-04-01T06:08:19.809Z,8.77
2023-04-01T06:11:02.402Z,8.78
2023-04-01T06:13:28.923Z,8.89
2023-04-01T06:16:06.756Z,9.16
2023-04-01T06:18:33.190Z,9.45
2023-04-01T06:21:18.539Z,9.50
2023-04-01T06:23:59.986Z,9.42
2023-04-01T06:26:44.981Z,9.48
2023-04-01T06:29:11.459Z,9.62
2023-04-01T06:31:57.045Z,9.76
2023-04-01T06:34:28.473Z,10.41
2023-04-01T06:37:14.165Z,10.93
2023-04-01T06:40:07.407Z,10.99
2023-04-01T06:42:39.062Z,11.31
2023-04-01T06:45:26.356Z,11.21
2023-04-01T06:48:37.592Z,10.86
2023-04-01T06:51:44.773Z,11.12
2023-04-01T06:54:43.274Z,10.42
2023-04-01T06:57:48.078Z,10.12
2023-04-01T07:00:25.638Z,10.53
2023-04-01T07:02:59.702Z,10.41
2023-04-01T07:05:30.540Z,10.45
2023-04-01T07:07:59.009Z,10.49
2023-04-01T07:10:47.058Z,10.94
2023-04-01T07:13:49.026Z,11.19
2023-04-01T07:16:26.569Z,11.51
2023-04-01T07:18:55.834Z,10.83
2023-04-01T07:21:31.436Z,11.35
2023-04-01T07:24:10.038Z,11.80
2023-04-01T07:26:42.660Z,12.64
2023-04-01T07:29:15.536Z,12.77
2023-04-01T07:31:50.616Z,12.76
2023-04-01T07:34:20.178Z,12.49
2023-04-01T07:37:07.517Z,12.99
2023-04-01T07:39:55.977Z,12.39
2023-04-01T07:42:37.797Z,13.50
2023-04-01T07:45:31.035Z,13.02
2023-04-01T07:48:01.134Z,14.04
2023-04-01T07:50:31.167Z,14.51
2023-04-01T07:53:16.638Z,14.73
2023-04-01T07:56:05.989Z,15.22
2023-04-01T07:58:41.081Z,15.58
2023-04-01T08:01:23.835Z,16.33
2023-04-01T08:04:03.310Z,16.68
2023-04-01T08:06:33.247Z,16.31
2023-04-01T08:09:18.490Z,16.48
2023-04-01T08:12:15.653Z,17.24
2023-04-01T08:15:28.783Z,17.54
2023-04-01T08:18:23.824Z,17.73
2023-04-01T08:20:56.501Z,16.53
2023-04-01T08:23:31.968Z,16.25
2023-04-01T08:26:01.463Z,16.58
2023-04-01T08:28:36.045Z,16.71
2023-04-01T08:31:14.815Z,16.27
2023-04-01T08:33:45.690Z,16.16
2023-04-01T08:36:20.137Z,16.13
2023-04-01T08:39:00.796Z,15.80
2023-04-01T08:41:39.892Z,16.09
2023-04-01T08:44:30.821Z,16.02
2023-04-01T08:47:06.867Z,16.31
2023-04-01T08:49:53.715Z,16.45
2023-04-01T08:52:47.797Z,16.76
2023-04-01T08:55:33.511Z,16.55
2023-04-01T08:58:18.070Z,16.14
2023-04-01T09:01:04.807Z,16.89
2023-04-01T09:03:59.283Z,16.61
2023-04-01T09:06:41.122Z,16.96
2023-04-01T09:09:07.638Z,16.68
2023-04-01T09:11:53.785Z,16.75
2023-04-01T09:14:43.074Z,17.33
2023-04-01T09:17:25.199Z,17.37
2023-04-01T09:19:57.831Z,17.18
2023-04-01T09:22:43.323Z,17.30
2023-04-01T09:25:25.956Z,17.51
2023-04-01T09:27:57.395Z,17.87
2023-04-01T09:30:26.698Z,17.07
2023-04-01T09:33:12.094Z,16.95
2023-04-01T09:35:49.396Z,16.91
2023-04-01T09:38:35.904Z,18.12
2023-04-01T09:41:17.870Z,17.24
2023-04-01T09:44:04.808Z,16.70
2023-04-01T09:46:41.637Z,16.42
2023-04-01T09:49:27.155Z,16.57
2023-04-01T09:52:10.885Z,16.46
2023-04-01T09:55:03.808Z,15.94
2023-04-01T09:57:30.826Z,16.68
2023-04-01T10:00:30.376Z,16.95
2023-04-01T10:03:14.221Z,16.76
2023-04-01T10:05:57.250Z,17.11
2023-04-01T10:08:43.211Z,16.74
2023-04-01T10:11:39.080Z,16.38
2023-04-01T10:14:08.706Z,16.89
2023-04-01T10:16:55.518Z,16.97
2023-04-01T10:19:40.890Z,16.31
2023-04-01T10:22:21.531Z,16.88
2023-04-01T10:24:57.031Z,16.69
2023-04-01T10:27:26.788Z,17.01
2023-04-01T10:30:23.565Z,16.54
2023-04-01T10:33:16.188Z,16.20
2023-04-01T10:35:46.077Z,16.82
2023-04-01T10:38:31.056Z,17.23
2023-04-01T10:41:06.662Z,17.09
2023-04-01T10:44:07.130Z,16.52
2023-04-01T10:47:03.889Z,16.82
2023-04-01T10:49:43.465Z,17.01
2023-04-01T10:52:22.577Z,16.42
2023-04-01T10:55:16.791Z,16.84
2023-04-01T10:58:20.817Z,16.65
2023-04-01T11:01:21.270Z,16.46
2023-04-01T11:04:26.972Z,16.16
2023-04-01T11:07:25.661Z,16.09
2023-04-01T11:09:55.280Z,16.22
2023-04-01T11:12:32.686Z,16.61
2023-04-01T11:15:11.834Z,17.01
2023-04-01T11:17:58.252Z,17.96
2023-04-01T11:20:34.478Z,18.11
2023-04-01T11:23:01.213Z,18.34
2023-04-01T11:25:41.821Z,18.28
2023-04-01T11:28:46.033Z,17.73
2023-04-01T11:31:23.789Z,17.53
2023-04-01T11:33:51.410Z,17.48
2023-04-01T11:36:37.089Z,17.58
2023-04-01T11:39:22.524Z,17.89
2023-04-01T11:42:26.942Z,17.98
2023-04-01T11:45:14.827Z,17.35
2023-04-01T11:47:53.177Z,18.08
2023-04-01T11:50:33.201Z,18.57
2023-04-01T11:53:08.647Z,18.20
2023-04-01T11:55:38.442Z,18.19
2023-04-01T11:58:14.689Z,18.25
2023-04-01T12:00:59.658Z,17.82
2023-04-01T12:03:29.278Z,17.26
2023-04-01T12:05:59.830Z,17.89
2023-04-01T12:08:35.103Z,18.13
2023-04-01T12:11:08.044Z,17.84
2023-04-01T12:13:37.571Z,17.77
2023-04-01T12:16:10.154Z,17.87
2023-04-01T12:18:43.683Z,17.11
2023-04-01T12:21:19.611Z,18.04
2023-04-01T12:24:14.277Z,17.75
2023-04-01T12:26:43.802Z,17.34
2023-04-01T12:29:13.712Z,17.27
2023-04-01T12:31:46.413Z,17.44
2023-04-01T12:34:31.664Z,18.22
2023-04-01T12:37:17.712Z,18.24
2023-04-01T12:40:14.792Z,18.15
2023-04-01T12:42:59.962Z,18.25
2023-04-01T12:45:45.531Z,17.54
2023-04-01T12:48:20.180Z,16.83
2023-04-01T12:51:05.660Z,17.11
2023-04-01T12:53:47.240Z,17.04
2023-04-01T12:56:34.094Z,17.31
2023-04-01T12:59:06.710Z,16.75
2023-04-01T13:01:52.345Z,16.82
2023-04-01T13:04:27.876Z,16.58
2023-04-01T13:07:01.782Z,16.74
2023-04-01T13:09:37.596Z,16.65
2023-04-01T13:12:18.759Z,16.86
2023-04-01T13:15:06.258Z,17.26
2023-04-01T13:17:33.091Z,17.10
2023-04-01T13:20:18.644Z,16.69
2023-04-01T13:22:54.238Z,17.30
2023-04-01T13:25:38.939Z,16.92
2023-04-01T13:28:26.862Z,16.54
2023-04-01T13:30:59.493Z,16.58
2023-04-01T13:33:37.921Z,17.16
2023-04-01T13:36:09.723Z,17.80
2023-04-01T13:38:39.351Z,18.48
2023-04-01T13:41:21.289Z,18.63
2023-04-01T13:43:53.694Z,19.44
2023-04-01T13:46:20.323Z,19.42
2023-04-01T13:48:46.828Z,18.85
2023-04-01T13:51:42.801Z,19.01
2023-04-01T13:54:21.404Z,18.52
2023-04-01T13:57:06.760Z,19.37
2023-04-01T14:00:00.723Z,19.04
2023-04-01T14:02:51.657Z,18.86
2023-04-01T14:05:43.089Z,18.06
2023-04-01T14:08:16.411Z,17.84
2023-04-01T14:10:45.958Z,19.13
2023-04-01T14:13:36.327Z,19.25
2023-04-01T14:16:14.076Z,19.91
2023-04-01T14:19:13.076Z,19.50
2023-04-01T14:21:47.845Z,18.99
2023-04-01T14:24:20.457Z,19.69
2023-04-01T14:27:20.586Z,19.98
2023-04-01T14:30:07.065Z,19.95
2023-04-01T14:32:33.538Z,18.20
2023-04-01T14:35:19.076Z,19.49
2023-04-01T14:38:00.717Z,19.36
2023-04-01T14:40:28.502Z,19.95
2023-04-01T14:42:54.912Z,20.06
2023-04-01T14:45:41.602Z,19.78
2023-04-01T14:48:26.539Z,18.67
2023-04-01T14:50:58.652Z,18.57
2023-04-01T14:53:29.060Z,18.38
2023-04-01T14:55:56.267Z,19.27
2023-04-01T14:58:26.212Z,19.80
2023-04-01T15:01:01.032Z,19.49
2023-04-01T15:03:33.583Z,19.63
2023-04-01T15:06:19.093Z,19.85
2023-04-01T15:09:05.965Z,19.47
2023-04-01T15:11:35.552Z,19.78
2023-04-01T15:14:04.889Z,19.98
2023-04-01T15:16:47.893Z,19.56
2023-04-01T15:19:29.685Z,19.73
2023-04-01T15:21:59.178Z,19.27
2023-04-01T15:24:27.445Z,19.67
2023-04-01T15:27:01.507Z,19.19
2023-04-01T15:29:38.548Z,20.46
2023-04-01T15:32:17.227Z,19.63
2023-04-01T15:34:53.002Z,18.83
2023-04-01T15:37:27.924Z,18.59
2023-04-01T15:39:54.431Z,18.81
2023-04-01T15:42:45.743Z,18.83
2023-04-01T15:45:12.164Z,18.34
2023-04-01T15:47:59.914Z,19.10
2023-04-01T15:50:32.435Z,19.18
2023-04-01T15:53:19.169Z,18.26
2023-04-01T15:56:04.618Z,18.43
2023-04-01T15:58:49.468Z,19.03
2023-04-01T16:01:16.079Z,18.59
2023-04-01T16:04:21.164Z,18.73
2023-04-01T16:06:59.988Z,18.55
2023-04-01T16:09:45.177Z,18.27
2023-04-01T16:12:17.712Z,18.69
2023-04-01T16:14:44.140Z,18.35
2023-04-01T16:17:16.717Z,17.61
2023-04-01T16:19:54.394Z,17.37
2023-04-01T16:22:27.138Z,17.17
2023-04-01T16:25:12.597Z,17.67
2023-04-01T16:27:59.685Z,16.86
2023-04-01T16:30:40.965Z,17.16
2023-04-01T16:33:22.626Z,16.57
2023-04-01T16:35:58.245Z,16.44
2023-04-01T16:38:27.627Z,16.46
2023-04-01T16:41:03.928Z,16.42
2023-04-01T16:43:37.003Z,16.75
2023-04-01T16:46:16.352Z,16.84
2023-04-01T16:48:45.693Z,16.58
2023-04-01T16:51:17.173Z,16.38
2023-04-01T16:53:46.823Z,16.25
2023-04-01T16:56:17.046Z,16.20
2023-04-01T16:58:50.958Z,16.17
2023-04-01T17:01:23.997Z,16.29
2023-04-01T17:03:53.360Z,16.25
2023-04-01T17:06:23.016Z,16.32
2023-04-01T17:08:49.512Z,16.21
2023-04-01T17:11:19.828Z,16.29
2023-04-01T17:13:53.953Z,15.97
2023-04-01T17:16:29.127Z,15.78
2023-04-01T17:19:02.307Z,15.52
2023-04-01T17:21:31.863Z,15.43
2023-04-01T17:24:21.540Z,15.38
2023-04-01T17:26:56.498Z,15.38
2023-04-01T17:29:32.905Z,15.39
2023-04-01T17:32:22.763Z,15.24
2023-04-01T17:34:55.012Z,15.32
2023-04-01T17:37:32.853Z,15.22
2023-04-01T17:40:02.406Z,15.20
2023-04-01T17:42:28.863Z,15.12
2023-04-01T17:44:55.639Z,14.98
2023-04-01T17:47:46.372Z,14.78
2023-04-01T17:50:15.914Z,15.03
2023-04-01T17:52:55.798Z,15.04
2023-04-01T17:55:22.270Z,14.79
2023-04-01T17:57:48.741Z,14.63
2023-04-01T18:00:30.172Z,14.47
2023-04-01T18:03:08.301Z,14.43
2023-04-01T18:05:34.829Z,14.46
2023-04-01T18:08:16.585Z,14.51
2023-04-01T18:10:59.648Z,14.53
2023-04-01T18:13:33.550Z,14.45
2023-04-01T18:16:18.801Z,14.35
2023-04-01T18:18:45.510Z,14.39
2023-04-01T18:21:30.501Z,14.50
2023-04-01T18:24:02.448Z,14.36
2023-04-01T18:26:32.817Z,14.37
2023-04-01T18:29:03.752Z,14.40
2023-04-01T18:31:35.898Z,14.23
2023-04-01T18:34:28.644Z,14.25
2023-04-01T18:36:59.094Z,14.16
2023-04-01T18:39:48.578Z,14.22
2023-04-01T18:42:21.062Z,14.27
2023-04-01T18:44:57.370Z,14.22
2023-04-01T18:47:23.818Z,14.12
2023-04-01T18:49:57.835Z,14.18
2023-04-01T18:52:28.613Z,14.18
2023-04-01T18:55:04.308Z,13.85
2023-04-01T18:57:49.272Z,13.85
2023-04-01T19:00:20.810Z,13.56
2023-04-01T19:02:59.274Z,13.19
2023-04-01T19:05:37.719Z,13.16
2023-04-01T19:08:18.294Z,12.77
2023-04-01T19:11:03.697Z,12.61
2023-04-01T19:13:48.754Z,12.48
2023-04-01T19:16:18.452Z,12.18
2023-04-01T19:18:54.908Z,12.35
2023-04-01T19:21:27.025Z,12.37
2023-04-01T19:23:53.493Z,12.23
2023-04-01T19:26:32.876Z,12.34
2023-04-01T19:29:17.657Z,12.00
2023-04-01T19:31:44.117Z,11.92
2023-04-01T19:34:29.422Z,11.89
2023-04-01T19:37:00.714Z,11.62
2023-04-01T19:39:59.699Z,11.75
2023-04-01T19:42:33.505Z,11.84
2023-04-01T19:44:59.954Z,11.83
2023-04-01T19:47:29.450Z,11.58
2023-04-01T19:50:17.160Z,11.64
2023-04-01T19:52:43.918Z,11.96
2023-04-01T19:55:19.575Z,11.93
2023-04-01T19:58:07.273Z,11.82
2023-04-01T20:00:48.615Z,11.78
2023-04-01T20:03:15.169Z,11.57
2023-04-01T20:05:48.286Z,11.39
2023-04-01T20:08:20.971Z,11.45
2023-04-01T20:11:08.782Z,11.49
2023-04-01T20:13:42.012Z,11.36
2023-04-01T20:16:09.738Z,11.44
2023-04-01T20:18:53.684Z,11.37
2023-04-01T20:21:35.572Z,11.26
2023-04-01T20:24:14.278Z,11.11
2023-04-01T20:26:44.546Z,11.08
2023-04-01T20:29:10.972Z,11.08
2023-04-01T20:31:56.357Z,11.24
2023-04-01T20:34:34.863Z,11.29
2023-04-01T20:37:20.762Z,11.31
2023-04-01T20:39:50.265Z,11.49
2023-04-01T20:42:35.487Z,11.48
2023-04-01T20:45:18.148Z,11.53
2023-04-01T20:47:50.766Z,11.39
2023-04-01T20:50:32.779Z,11.42
2023-04-01T20:53:02.036Z,11.35
2023-04-01T20:55:41.256Z,11.28
2023-04-01T20:58:30.533Z,11.37
2023-04-01T21:01:07.086Z,11.33
2023-04-01T21:03:52.330Z,11.26
2023-04-01T21:06:37.192Z,11.29
2023-04-01T21:09:12.648Z,11.20
2023-04-01T21:11:39.301Z,11.17
2023-04-01T21:14:11.543Z,11.18
2023-04-01T21:16:38.235Z,11.01
2023-04-01T21:19:13.780Z,11.03
2023-04-01T21:21:58.976Z,11.05
2023-04-01T21:24:40.704Z,10.98
2023-04-01T21:27:25.911Z,11.01
2023-04-01T21:29:56.873Z,11.13
2023-04-01T21:32:31.282Z,11.10
2023-04-01T21:35:19.248Z,11.14
2023-04-01T21:37:55.020Z,11.09
2023-04-01T21:40:33.071Z,11.01
2023-04-01T21:43:02.280Z,11.04
2023-04-01T21:45:30.465Z,11.02
2023-04-01T21:48:16.515Z,11.06
2023-04-01T21:50:56.741Z,11.14
2023-04-01T21:53:26.227Z,11.17
2023-04-01T21:56:01.900Z,11.07
2023-04-01T21:58:31.496Z,11.05
2023-04-01T22:01:16.584Z,11.00
2023-04-01T22:03:51.009Z,10.94
2023-04-01T22:06:24.328Z,11.10
2023-04-01T22:09:00.815Z,11.07
2023-04-01T22:11:55.196Z,11.03
2023-04-01T22:14:24.682Z,10.99
2023-04-01T22:16:51.238Z,11.01
2023-04-01T22:19:20.971Z,10.99
2023-04-01T22:21:53.072Z,11.12
2023-04-01T22:24:19.636Z,11.16
2023-04-01T22:26:52.169Z,11.29
2023-04-01T22:29:22.623Z,11.46
2023-04-01T22:31:53.142Z,11.39
2023-04-01T22:34:34.392Z,11.35
2023-04-01T22:37:03.688Z,11.41
2023-04-01T22:39:42.168Z,11.39
2023-04-01T22:42:18.745Z,11.43
2023-04-01T22:44:45.321Z,11.34
2023-04-01T22:47:18.256Z,11.35
2023-04-01T22:49:49.416Z,11.23
2023-04-01T22:52:34.746Z,11.23
2023-04-01T22:55:03.420Z,11.06
2023-04-01T22:57:48.545Z,11.18
2023-04-01T23:00:27.548Z,10.91
2023-04-01T23:03:13.057Z,10.67
2023-04-01T23:05:51.475Z,10.68
2023-04-01T23:08:31.853Z,10.81
2023-04-01T23:11:09.160Z,10.96
2023-04-01T23:13:39.162Z,10.86
2023-04-01T23:16:07.303Z,10.67
2023-04-01T23:18:52.646Z,10.74
2023-04-01T23:21:37.907Z,10.30
2023-04-01T23:24:12.716Z,10.25
2023-04-01T23:26:56.458Z,10.09
2023-04-01T23:29:23.451Z,10.29
2023-04-01T23:31:57.632Z,10.10
2023-04-01T23:34:26.712Z,10.00
2023-04-01T23:36:58.960Z,9.97
2023-04-01T23:39:34.702Z,10.00
2023-04-01T23:42:06.077Z,9.98
2023-04-01T23:44:33.704Z,9.95
2023-04-01T23:47:01.124Z,9.95
2023-04-01T23:49:43.856Z,9.64
2023-04-01T23:52:24.218Z,9.84
2023-04-01T23:54:50.791Z,9.92
2023-04-01T23:57:21.642Z,9.88
